createdAt,value
2023-04-30T00:02:21.929Z,93.70
2023-04-30T00:04:49.891Z,94.70
2023-04-30T00:07:31.664Z,96.20
2023-04-30T00:10:02.960Z,95.10
2023-04-30T00:12:40.054Z,93.40
2023-04-30T00:15:12.617Z,93.40
2023-04-30T00:17:40.555Z,93.10
2023-04-30T00:20:09.325Z,93.10
2023-04-30T00:22:40.313Z,93.40
2023-04-30T00:25:09.349Z,94.30
2023-04-30T00:27:38.835Z,93.10
2023-04-30T00:30:10.822Z,93.00
2023-04-30T00:32:41.493Z,92.70
2023-04-30T00:35:10.092Z,92.40
2023-04-30T00:37:47.668Z,92.00
2023-04-30T00:40:15.724Z,91.90
2023-04-30T00:42:43.634Z,92.50
2023-04-30T00:45:21.955Z,92.60
2023-04-30T00:47:50.373Z,92.70
2023-04-30T00:50:21.393Z,91.70
2023-04-30T00:52:49.418Z,92.00
2023-04-30T00:55:26.370Z,92.40
2023-04-30T00:57:57.396Z,92.10
2023-04-30T01:00:30.754Z,92.50
2023-04-30T01:02:58.891Z,92.30
2023-04-30T01:05:26.956Z,92.30
2023-04-30T01:07:56.310Z,92.20
2023-04-30T01:10:36.466Z,93.40
2023-04-30T01:13:12.165Z,92.70
2023-04-30T01:15:55.542Z,91.60
2023-04-30T01:18:29.050Z,92.00
2023-04-30T01:21:03.371Z,92.60
2023-04-30T01:23:49.326Z,92.40
2023-04-30T01:26:35.381Z,92.30
2023-04-30T01:29:09.383Z,92.30
2023-04-30T01:31:37.956Z,93.10
2023-04-30T01:34:08.086Z,93.10
2023-04-30T01:36:56.580Z,93.00
2023-04-30T01:39:40.988Z,93.70
2023-04-30T01:42:22.216Z,92.80
2023-04-30T01:45:25.569Z,92.60
2023-04-30T01:51:09.789Z,93.20
2023-04-30T01:53:44.823Z,93.30
2023-04-30T01:56:17.954Z,93.30
2023-04-30T01:58:48.134Z,93.70
2023-04-30T02:01:29.181Z,94.20
2023-04-30T02:03:57.312Z,93.60
2023-04-30T02:06:28.174Z,94.60
2023-04-30T02:09:05.429Z,94.00
2023-04-30T02:11:36.384Z,93.40
2023-04-30T02:14:06.739Z,93.20
2023-04-30T02:16:36.037Z,93.10
2023-04-30T02:19:10.228Z,93.80
2023-04-30T02:21:40.921Z,93.80
2023-04-30T02:24:08.817Z,94.00
2023-04-30T02:26:36.682Z,93.90
2023-04-30T02:29:10.664Z,93.20
2023-04-30T02:31:45.586Z,94.40
2023-04-30T02:34:27.795Z,94.80
2023-04-30T02:36:58.774Z,93.20
2023-04-30T02:39:27.044Z,93.00
2023-04-30T02:41:57.650Z,93.00
2023-04-30T02:44:25.763Z,93.00
2023-04-30T02:46:54.973Z,93.10
2023-04-30T02:49:25.617Z,93.30
2023-04-30T02:51:53.527Z,93.20
2023-04-30T02:54:24.504Z,93.90
2023-04-30T02:56:52.363Z,94.90
2023-04-30T02:59:26.050Z,93.30
2023-04-30T03:01:55.244Z,93.00
2023-04-30T03:04:23.118Z,93.10
2023-04-30T03:06:53.777Z,93.00
2023-04-30T03:09:24.596Z,92.90
2023-04-30T03:11:57.369Z,92.80
2023-04-30T03:14:28.044Z,93.00
2023-04-30T03:16:57.281Z,92.60
2023-04-30T03:19:25.498Z,92.80
2023-04-30T03:22:05.247Z,94.70
2023-04-30T03:24:41.741Z,94.40
2023-04-30T03:27:14.192Z,92.80
2023-04-30T03:29:42.037Z,92.80
2023-04-30T03:32:11.244Z,92.70
2023-04-30T03:34:47.122Z,92.60
2023-04-30T03:37:17.190Z,92.50
2023-04-30T03:39:51.022Z,93.00
2023-04-30T03:42:18.888Z,92.60
2023-04-30T03:44:46.740Z,92.10
2023-04-30T03:47:15.978Z,93.40
2023-04-30T03:49:43.892Z,92.50
2023-04-30T03:52:14.759Z,92.10
2023-04-30T03:54:46.017Z,92.80
2023-04-30T03:57:13.978Z,93.20
2023-04-30T03:59:53.986Z,93.30
2023-04-30T04:02:38.692Z,93.20
2023-04-30T04:05:13.223Z,94.80
2023-04-30T04:07:41.205Z,96.20
2023-04-30T04:10:09.680Z,94.50
2023-04-30T04:12:37.560Z,95.30
2023-04-30T04:15:08.258Z,95.30
2023-04-30T04:17:37.491Z,95.90
2023-04-30T04:20:07.129Z,95.50
2023-04-30T04:22:34.978Z,93.40
2023-04-30T04:25:06.306Z,92.40
2023-04-30T04:27:46.353Z,92.80
2023-04-30T04:30:14.752Z,92.90
2023-04-30T04:32:48.258Z,92.40
2023-04-30T04:35:22.747Z,93.00
2023-04-30T04:37:56.515Z,92.70
2023-04-30T04:40:31.707Z,92.70
2023-04-30T04:43:03.128Z,95.20
2023-04-30T04:45:31.396Z,97.30
2023-04-30T04:48:00.699Z,97.60
2023-04-30T04:50:28.576Z,95.30
2023-04-30T04:52:56.416Z,94.60
2023-04-30T04:55:24.305Z,96.00
2023-04-30T04:57:52.512Z,95.20
2023-04-30T05:00:22.095Z,95.00
2023-04-30T05:02:50.036Z,94.80
2023-04-30T05:05:19.350Z,95.80
2023-04-30T05:07:52.341Z,96.80
2023-04-30T05:10:20.269Z,95.30
2023-04-30T05:12:50.989Z,95.70
2023-04-30T05:15:19.078Z,94.90
2023-04-30T05:17:47.024Z,95.20
2023-04-30T05:20:14.927Z,96.00
2023-04-30T05:22:47.315Z,95.50
2023-04-30T05:25:18.168Z,95.40
2023-04-30T05:27:51.923Z,96.00
2023-04-30T05:30:25.938Z,96.20
2023-04-30T05:32:53.887Z,96.10
2023-04-30T05:35:21.804Z,96.60
2023-04-30T05:37:51.111Z,97.30
2023-04-30T05:40:19.174Z,98.00
2023-04-30T05:42:47.026Z,95.90
2023-04-30T05:45:21.079Z,95.90
2023-04-30T05:47:54.949Z,95.90
2023-04-30T05:50:28.674Z,96.10
2023-04-30T05:52:57.882Z,96.60
2023-04-30T05:55:32.076Z,96.40
2023-04-30T05:57:59.920Z,97.20
2023-04-30T06:00:33.454Z,97.40
2023-04-30T06:03:01.514Z,97.30
2023-04-30T06:05:29.444Z,97.50
2023-04-30T06:07:58.732Z,97.70
2023-04-30T06:10:26.740Z,97.90
2023-04-30T06:12:54.719Z,98.50
2023-04-30T06:15:23.401Z,97.60
2023-04-30T06:17:51.354Z,97.40
2023-04-30T06:20:22.415Z,97.20
2023-04-30T06:22:52.416Z,97.00
2023-04-30T06:25:22.056Z,98.40
2023-04-30T06:27:51.575Z,97.40
2023-04-30T06:30:19.528Z,98.40
2023-04-30T06:32:47.416Z,98.30
2023-04-30T06:35:16.261Z,99.50
2023-04-30T06:37:46.973Z,98.70
2023-04-30T06:40:14.943Z,97.80
2023-04-30T06:42:47.814Z,97.90
2023-04-30T06:45:16.032Z,98.20
2023-04-30T06:47:47.094Z,98.20
2023-04-30T06:50:17.931Z,97.80
2023-04-30T06:52:45.830Z,97.90
2023-04-30T06:55:19.978Z,97.40
2023-04-30T06:57:49.374Z,97.70
2023-04-30T07:00:18.410Z,97.00
2023-04-30T07:02:47.898Z,97.00
2023-04-30T07:05:19.017Z,96.40
2023-04-30T07:07:46.986Z,96.50
2023-04-30T07:10:18.329Z,96.60
2023-04-30T07:12:46.197Z,96.40
2023-04-30T07:15:22.965Z,96.70
2023-04-30T07:17:50.915Z,96.30
2023-04-30T07:20:18.818Z,96.60
2023-04-30T07:22:48.341Z,96.60
2023-04-30T07:25:23.954Z,96.90
2023-04-30T07:27:53.032Z,96.40
2023-04-30T07:30:24.419Z,96.40
2023-04-30T07:32:53.134Z,95.90
2023-04-30T07:35:24.061Z,95.00
2023-04-30T07:37:51.924Z,96.50
2023-04-30T07:40:29.128Z,95.90
2023-04-30T07:43:06.474Z,96.50
2023-04-30T07:45:35.793Z,96.20
2023-04-30T07:48:03.737Z,95.90
2023-04-30T07:50:34.410Z,95.00
2023-04-30T07:53:09.384Z,95.10
2023-04-30T07:55:39.568Z,95.30
2023-04-30T07:58:07.612Z,96.10
2023-04-30T08:00:36.831Z,95.40
2023-04-30T08:03:07.760Z,96.10
2023-04-30T08:05:41.370Z,95.20
2023-04-30T08:08:11.413Z,96.00
2023-04-30T08:10:41.831Z,95.00
2023-04-30T08:13:09.720Z,94.80
2023-04-30T08:15:40.053Z,95.20
2023-04-30T08:18:07.974Z,94.60
2023-04-30T08:20:37.957Z,95.20
2023-04-30T08:23:06.759Z,95.30
2023-04-30T08:25:34.667Z,95.50
2023-04-30T08:28:05.867Z,95.50
2023-04-30T08:30:33.746Z,95.00
2023-04-30T08:33:06.261Z,95.80
2023-04-30T08:35:40.023Z,94.80
2023-04-30T08:38:08.479Z,93.90
2023-04-30T08:40:50.885Z,94.30
2023-04-30T08:43:20.051Z,94.60
2023-04-30T08:45:48.368Z,94.70
2023-04-30T08:48:20.068Z,94.10
2023-04-30T08:50:48.061Z,94.30
2023-04-30T08:53:17.367Z,94.50
2023-04-30T08:55:45.777Z,94.60
2023-04-30T08:58:13.649Z,94.80
2023-04-30T09:00:42.491Z,94.40
2023-04-30T09:03:10.776Z,93.90
2023-04-30T09:05:41.700Z,93.10
2023-04-30T09:08:09.645Z,92.90
2023-04-30T09:10:40.313Z,93.40
2023-04-30T09:13:10.160Z,93.30
2023-04-30T09:15:41.753Z,92.70
2023-04-30T09:18:12.390Z,92.60
2023-04-30T09:21:00.700Z,92.20
2023-04-30T09:23:31.222Z,92.90
2023-04-30T09:26:01.988Z,93.00
2023-04-30T09:28:29.978Z,92.90
2023-04-30T09:31:00.868Z,92.90
2023-04-30T09:33:30.145Z,93.10
2023-04-30T09:35:59.385Z,93.30
2023-04-30T09:38:31.580Z,93.40
2023-04-30T09:41:00.890Z,92.20
2023-04-30T09:43:29.186Z,92.70
2023-04-30T09:45:59.631Z,92.70
2023-04-30T09:48:28.662Z,93.20
2023-04-30T09:51:09.872Z,92.60
2023-04-30T09:53:39.466Z,92.20
2023-04-30T09:56:09.473Z,92.30
2023-04-30T09:58:38.713Z,92.70
2023-04-30T10:01:07.937Z,92.50
2023-04-30T10:03:41.480Z,93.10
2023-04-30T10:06:13.852Z,92.00
2023-04-30T10:08:43.937Z,91.00
2023-04-30T10:11:17.363Z,93.40
2023-04-30T10:13:51.149Z,91.00
2023-04-30T10:16:28.307Z,91.40
2023-04-30T10:19:00.684Z,92.40
2023-04-30T10:21:32.451Z,91.70
2023-04-30T10:24:04.384Z,93.10
2023-04-30T10:26:42.194Z,92.20
2023-04-30T10:29:11.052Z,91.40
2023-04-30T10:31:44.102Z,91.30
2023-04-30T10:34:35.369Z,91.70
2023-04-30T10:37:18.209Z,92.80
2023-04-30T10:39:49.676Z,91.80
2023-04-30T10:42:17.657Z,92.50
2023-04-30T10:44:48.610Z,92.00
2023-04-30T10:47:19.183Z,91.70
2023-04-30T10:49:50.930Z,92.40
2023-04-30T10:52:29.789Z,92.10
2023-04-30T10:54:59.937Z,92.50
2023-04-30T10:57:41.084Z,92.40
2023-04-30T11:00:27.499Z,91.60
2023-04-30T11:03:05.605Z,92.10
2023-04-30T11:05:39.818Z,92.50
2023-04-30T11:08:21.083Z,91.40
2023-04-30T11:11:06.010Z,91.70
2023-04-30T11:13:46.993Z,91.10
2023-04-30T11:16:16.776Z,92.00
2023-04-30T11:18:48.281Z,92.30
2023-04-30T11:21:22.257Z,92.50
2023-04-30T11:23:51.946Z,92.40
2023-04-30T11:26:21.330Z,92.50
2023-04-30T11:28:53.205Z,91.80
2023-04-30T11:31:47.565Z,91.90
2023-04-30T11:34:21.611Z,92.20
2023-04-30T11:36:49.640Z,92.80
2023-04-30T11:39:19.689Z,91.20
2023-04-30T11:41:47.540Z,91.40
2023-04-30T11:44:28.000Z,91.70
2023-04-30T11:47:01.182Z,91.10
2023-04-30T11:49:29.304Z,91.20
2023-04-30T11:52:00.087Z,90.70
2023-04-30T11:54:32.724Z,91.50
2023-04-30T11:57:04.284Z,91.00
2023-04-30T11:59:32.672Z,91.20
2023-04-30T12:02:03.426Z,91.40
2023-04-30T12:04:33.627Z,91.30
2023-04-30T12:07:02.321Z,90.40
2023-04-30T12:09:31.930Z,91.10
2023-04-30T12:12:00.034Z,91.60
2023-04-30T12:14:33.719Z,91.10
2023-04-30T12:17:04.738Z,90.80
2023-04-30T12:19:41.409Z,91.40
2023-04-30T12:22:12.196Z,91.40
2023-04-30T12:24:41.370Z,90.80
2023-04-30T12:27:09.482Z,90.90
2023-04-30T12:29:45.282Z,90.20
2023-04-30T12:32:16.089Z,90.30
2023-04-30T12:34:44.816Z,91.80
2023-04-30T12:37:15.761Z,90.70
2023-04-30T12:39:45.184Z,91.60
2023-04-30T12:42:13.151Z,91.10
2023-04-30T12:44:47.665Z,91.50
2023-04-30T12:47:17.312Z,92.20
2023-04-30T12:49:46.837Z,91.10
2023-04-30T12:52:15.616Z,91.10
2023-04-30T12:54:47.749Z,90.30
2023-04-30T12:57:15.797Z,90.10
2023-04-30T13:00:08.209Z,90.00
2023-04-30T13:02:36.497Z,89.50
2023-04-30T13:05:04.538Z,90.50
2023-04-30T13:07:40.590Z,89.90
2023-04-30T13:10:13.780Z,89.80
2023-04-30T13:12:41.987Z,88.20
2023-04-30T13:15:10.621Z,88.70
2023-04-30T13:17:39.537Z,89.10
2023-04-30T13:20:09.209Z,88.30
2023-04-30T13:22:43.277Z,88.60
2023-04-30T13:25:12.619Z,89.40
2023-04-30T13:27:43.326Z,90.70
2023-04-30T13:30:12.434Z,88.10
2023-04-30T13:32:43.006Z,86.70
2023-04-30T13:35:11.730Z,86.50
2023-04-30T13:37:39.904Z,86.30
2023-04-30T13:40:09.654Z,86.60
2023-04-30T13:42:40.290Z,85.50
2023-04-30T13:45:09.355Z,87.30
2023-04-30T13:47:37.255Z,87.20
2023-04-30T13:50:06.089Z,87.40
2023-04-30T13:52:36.332Z,87.10
2023-04-30T13:55:07.592Z,89.00
2023-04-30T13:57:38.339Z,86.80
2023-04-30T14:00:09.082Z,86.30
2023-04-30T14:02:37.143Z,85.80
2023-04-30T14:05:08.754Z,85.40
2023-04-30T14:07:37.315Z,86.60
2023-04-30T14:10:05.980Z,87.50
2023-04-30T14:12:39.769Z,91.10
2023-04-30T14:15:10.073Z,89.40
2023-04-30T14:17:38.034Z,83.70
2023-04-30T14:20:06.998Z,86.00
2023-04-30T14:22:41.096Z,83.80
2023-04-30T14:25:10.396Z,86.30
2023-04-30T14:27:38.303Z,86.40
2023-04-30T14:30:09.224Z,85.60
2023-04-30T14:32:45.678Z,86.90
2023-04-30T14:35:13.574Z,87.10
2023-04-30T14:37:41.438Z,85.50
2023-04-30T14:40:10.453Z,85.50
2023-04-30T14:42:38.454Z,85.50
2023-04-30T14:45:09.424Z,85.00
2023-04-30T14:47:40.630Z,85.10
2023-04-30T14:50:11.847Z,83.90
2023-04-30T14:52:41.996Z,84.40
2023-04-30T14:55:16.110Z,83.20
2023-04-30T14:57:43.994Z,82.80
2023-04-30T15:00:14.384Z,82.20
2023-04-30T15:02:51.619Z,83.80
2023-04-30T15:05:19.637Z,82.20
2023-04-30T15:07:50.401Z,82.70
2023-04-30T15:10:18.373Z,83.10
2023-04-30T15:12:46.267Z,79.90
2023-04-30T15:15:17.385Z,82.10
2023-04-30T15:17:46.614Z,84.00
2023-04-30T15:20:17.290Z,80.40
2023-04-30T15:22:48.184Z,82.20
2023-04-30T15:25:19.245Z,81.80
2023-04-30T15:27:47.101Z,80.70
2023-04-30T15:30:16.635Z,80.20
2023-04-30T15:32:44.515Z,81.50
2023-04-30T15:35:18.811Z,82.40
2023-04-30T15:37:46.696Z,82.00
2023-04-30T15:40:17.834Z,82.30
2023-04-30T15:42:46.067Z,83.50
2023-04-30T15:45:13.991Z,82.20
2023-04-30T15:47:46.447Z,84.00
2023-04-30T15:50:17.244Z,80.70
2023-04-30T15:52:52.388Z,82.50
2023-04-30T15:55:27.760Z,82.30
2023-04-30T15:57:55.638Z,84.30
2023-04-30T16:00:27.204Z,84.20
2023-04-30T16:03:02.318Z,81.30
2023-04-30T16:05:40.961Z,81.40
2023-04-30T16:08:14.962Z,81.10
2023-04-30T16:10:43.328Z,81.40
2023-04-30T16:13:20.221Z,79.30
2023-04-30T16:16:00.402Z,79.00
2023-04-30T16:18:35.853Z,80.50
2023-04-30T16:21:05.456Z,81.50
2023-04-30T16:23:33.382Z,80.40
2023-04-30T16:26:04.366Z,80.30
2023-04-30T16:28:40.536Z,80.70
2023-04-30T16:31:08.412Z,80.20
2023-04-30T16:33:37.651Z,79.00
2023-04-30T16:36:12.054Z,79.30
2023-04-30T16:38:39.894Z,78.30
2023-04-30T16:41:12.056Z,79.20
2023-04-30T16:43:40.073Z,79.10
2023-04-30T16:46:08.062Z,78.40
2023-04-30T16:48:49.810Z,78.50
2023-04-30T16:51:20.845Z,78.50
2023-04-30T16:53:51.826Z,77.50
2023-04-30T16:56:21.367Z,80.00
2023-04-30T16:58:55.488Z,77.30
2023-04-30T17:01:23.421Z,77.80
2023-04-30T17:03:52.833Z,78.70
2023-04-30T17:06:20.871Z,77.90
2023-04-30T17:08:56.360Z,79.00
2023-04-30T17:11:34.364Z,79.20
2023-04-30T17:14:02.231Z,78.70
2023-04-30T17:16:30.129Z,78.90
2023-04-30T17:19:02.193Z,79.60
2023-04-30T17:21:30.157Z,79.70
2023-04-30T17:23:58.519Z,79.80
2023-04-30T17:26:26.702Z,79.90
2023-04-30T17:28:54.600Z,80.90
2023-04-30T17:31:34.866Z,79.40
2023-04-30T17:34:06.417Z,80.00
2023-04-30T17:36:37.082Z,79.80
2023-04-30T17:39:08.312Z,79.90
2023-04-30T17:41:45.125Z,81.60
2023-04-30T17:44:12.992Z,81.10
2023-04-30T17:46:50.267Z,81.00
2023-04-30T17:49:22.595Z,80.60
2023-04-30T17:51:50.494Z,81.50
2023-04-30T17:54:27.177Z,81.70
2023-04-30T17:56:55.026Z,80.80
2023-04-30T17:59:23.748Z,81.00
2023-04-30T18:01:51.630Z,80.50
2023-04-30T18:04:23.771Z,80.70
2023-04-30T18:06:57.831Z,80.60
2023-04-30T18:09:26.124Z,81.20
2023-04-30T18:11:59.433Z,81.00
2023-04-30T18:14:32.047Z,81.70
2023-04-30T18:17:02.722Z,81.60
2023-04-30T18:19:32.373Z,81.40
2023-04-30T18:22:00.460Z,80.80
2023-04-30T18:24:30.620Z,80.90
2023-04-30T18:26:58.516Z,81.30
2023-04-30T18:29:35.674Z,81.80
2023-04-30T18:32:08.303Z,81.00
2023-04-30T18:34:40.133Z,82.00
2023-04-30T18:37:10.963Z,81.50
2023-04-30T18:39:44.647Z,81.70
2023-04-30T18:42:12.512Z,81.20
2023-04-30T18:44:40.776Z,81.70
2023-04-30T18:47:11.703Z,81.50
2023-04-30T18:49:41.404Z,82.20
2023-04-30T18:52:15.020Z,81.70
2023-04-30T18:54:43.000Z,81.80
2023-04-30T18:57:18.333Z,82.00
2023-04-30T18:59:46.209Z,81.80
2023-04-30T19:02:14.579Z,81.40
2023-04-30T19:04:46.333Z,81.80
2023-04-30T19:07:16.612Z,81.70
2023-04-30T19:09:51.769Z,82.10
2023-04-30T19:12:22.581Z,82.20
2023-04-30T19:14:50.588Z,82.10
2023-04-30T19:17:21.361Z,82.50
2023-04-30T19:20:00.482Z,83.10
2023-04-30T19:22:28.553Z,82.40
2023-04-30T19:24:59.458Z,82.60
2023-04-30T19:27:27.448Z,83.20
2023-04-30T19:29:57.656Z,82.20
2023-04-30T19:32:28.670Z,82.90
2023-04-30T19:34:56.612Z,82.00
2023-04-30T19:37:28.962Z,80.80
2023-04-30T19:39:59.720Z,82.30
2023-04-30T19:42:27.526Z,81.30
2023-04-30T19:44:55.347Z,81.00
2023-04-30T19:47:30.281Z,82.10
2023-04-30T19:49:58.254Z,81.00
2023-04-30T19:52:30.728Z,82.20
2023-04-30T19:54:58.651Z,80.30
2023-04-30T19:57:34.802Z,81.20
2023-04-30T20:00:04.266Z,81.30
2023-04-30T20:02:53.622Z,81.90
2023-04-30T20:05:21.782Z,82.60
2023-04-30T20:07:50.971Z,81.70
2023-04-30T20:10:22.072Z,81.10
2023-04-30T20:12:56.364Z,80.60
2023-04-30T20:15:24.431Z,81.60
2023-04-30T20:17:53.271Z,81.10
2023-04-30T20:20:36.150Z,82.30
2023-04-30T20:23:14.223Z,81.70
2023-04-30T20:25:50.171Z,82.80
2023-04-30T20:28:23.780Z,83.00
2023-04-30T20:30:51.660Z,83.10
2023-04-30T20:33:24.533Z,82.30
2023-04-30T20:36:02.748Z,82.80
2023-04-30T20:38:38.085Z,83.00
2023-04-30T20:41:12.662Z,81.20
2023-04-30T20:43:46.209Z,83.30
2023-04-30T20:46:17.135Z,84.40
2023-04-30T20:48:45.053Z,82.10
2023-04-30T20:51:15.805Z,82.70
2023-04-30T20:53:47.888Z,82.60
2023-04-30T20:56:22.972Z,81.30
2023-04-30T20:58:54.485Z,81.50
2023-04-30T21:01:22.529Z,80.40
2023-04-30T21:04:00.880Z,81.80
2023-04-30T21:06:29.000Z,84.40
2023-04-30T21:09:06.173Z,82.90
2023-04-30T21:11:40.405Z,81.50
2023-04-30T21:14:08.845Z,81.10
2023-04-30T21:16:40.630Z,84.90
2023-04-30T21:19:08.644Z,83.70
2023-04-30T21:21:36.530Z,84.70
2023-04-30T21:24:09.227Z,84.90
2023-04-30T21:26:37.100Z,83.00
2023-04-30T21:29:05.024Z,83.90
2023-04-30T21:31:32.888Z,83.10
2023-04-30T21:34:00.819Z,85.00
2023-04-30T21:36:29.944Z,83.80
2023-04-30T21:39:01.510Z,83.50
2023-04-30T21:41:32.026Z,83.90
2023-04-30T21:44:03.437Z,84.00
2023-04-30T21:46:34.267Z,82.40
2023-04-30T21:49:02.187Z,82.60
2023-04-30T21:51:30.644Z,82.90
2023-04-30T21:54:01.500Z,83.60
2023-04-30T21:56:30.732Z,83.30
2023-04-30T21:58:58.774Z,82.40
2023-04-30T22:01:32.761Z,82.90
2023-04-30T22:04:00.706Z,82.30
2023-04-30T22:06:35.222Z,82.60
2023-04-30T22:09:06.196Z,84.40
2023-04-30T22:11:46.727Z,84.20
2023-04-30T22:14:14.566Z,83.90
2023-04-30T22:16:45.353Z,83.20
2023-04-30T22:19:13.276Z,83.50
2023-04-30T22:21:41.138Z,83.40
2023-04-30T22:24:11.756Z,83.90
2023-04-30T22:26:46.526Z,83.30
2023-04-30T22:29:16.887Z,84.10
2023-04-30T22:31:44.819Z,82.60
2023-04-30T22:34:14.300Z,83.70
2023-04-30T22:36:42.227Z,85.30
2023-04-30T22:39:11.711Z,84.00
2023-04-30T22:41:39.584Z,84.80
2023-04-30T22:44:17.114Z,83.90
2023-04-30T22:46:45.174Z,83.10
2023-04-30T22:49:23.853Z,84.20
2023-04-30T22:52:01.778Z,83.60
2023-04-30T22:54:29.958Z,83.50
2023-04-30T22:56:58.393Z,84.60
2023-04-30T22:59:30.499Z,84.40
2023-04-30T23:02:01.521Z,82.80
2023-04-30T23:04:38.527Z,82.30
2023-04-30T23:07:09.798Z,82.10
2023-04-30T23:09:40.742Z,82.60
2023-04-30T23:12:10.890Z,84.00
2023-04-30T23:14:50.896Z,87.70
2023-04-30T23:17:23.216Z,89.10
2023-04-30T23:20:00.015Z,86.20
2023-04-30T23:22:36.730Z,86.50
2023-04-30T23:25:11.497Z,83.50
2023-04-30T23:27:39.414Z,85.00
2023-04-30T23:30:21.805Z,83.60
2023-04-30T23:32:55.601Z,83.10
2023-04-30T23:35:27.330Z,83.70
2023-04-30T23:37:58.100Z,84.80
2023-04-30T23:40:28.745Z,84.40
2023-04-30T23:42:59.844Z,84.00
2023-04-30T23:45:29.141Z,83.50
2023-04-30T23:47:59.920Z,85.60
2023-04-30T23:50:28.460Z,84.70
2023-04-30T23:52:59.149Z,85.30
2023-04-30T23:55:29.216Z,83.70
2023-04-30T23:58:00.172Z,83.40
